METAR Data
IDs: Format: Raw Decoded Include TAF

Data at: 0041 UTC 19 Nov 2018

METAR for:PANC (Anchorage Intl, AK, US)
Text:PANC 182353Z 01004KT 10SM BKN003 OVC030 03/02 A2947 RMK AO2 RAE47 SLP981 PRESENT WX VCSH NE-E 4/001 P0000 60000 T00330022 10033 20028 58012 $
Temperature: 3.3°C ( 38°F)
Dewpoint: 2.2°C ( 36°F) [RH = 92%]
Pressure (altimeter):29.47 inches Hg ( 998.1 mb) [Sea level pressure: 998.1 mb]
Winds:from the N (10 degrees) at 5 MPH (4 knots; 2.1 m/s)
Visibility:10 or more sm (16+ km)
Ceiling:300 feet AGL
Clouds: broken clouds at 300 feet AGL, overcast cloud deck at 3000 feet AGL
QC Flag:SOME DATA ABOVE MAY BE INACCURATE!!!"$" is an indication the sensor requires maintenance.
Text:PANC 182253Z 01003KT 10SM -RA BKN003 OVC040 03/02 A2948 RMK AO2 RAB51 SLP985 P0000 T00330022 $
Temperature: 3.3°C ( 38°F)
Dewpoint: 2.2°C ( 36°F) [RH = 92%]
Pressure (altimeter):29.48 inches Hg ( 998.4 mb) [Sea level pressure: 998.5 mb]
Winds:from the N (10 degrees) at 3 MPH (3 knots; 1.5 m/s)
Visibility:10 or more sm (16+ km)
Ceiling:300 feet AGL
Clouds: broken clouds at 300 feet AGL, overcast cloud deck at 4000 feet AGL
Weather:-RA (light rain)
QC Flag:SOME DATA ABOVE MAY BE INACCURATE!!!"$" is an indication the sensor requires maintenance.
Text:PANC 182231Z 35005KT 10SM BKN003 OVC040 03/02 A2949 RMK AO2 T00330022 $
Temperature: 3.3°C ( 38°F)
Dewpoint: 2.2°C ( 36°F) [RH = 92%]
Pressure (altimeter):29.49 inches Hg ( 998.7 mb)
Winds:from the N (350 degrees) at 6 MPH (5 knots; 2.6 m/s)
Visibility:10 or more sm (16+ km)
Ceiling:300 feet AGL
Clouds: broken clouds at 300 feet AGL, overcast cloud deck at 4000 feet AGL
QC Flag:SOME DATA ABOVE MAY BE INACCURATE!!!"$" is an indication the sensor requires maintenance.
Text:PANC 182153Z 35004KT 10SM BKN005 OVC040 03/02 A2950 RMK AO2 SLP990 T00330022 $
Temperature: 3.3°C ( 38°F)
Dewpoint: 2.2°C ( 36°F) [RH = 92%]
Pressure (altimeter):29.50 inches Hg ( 999.1 mb) [Sea level pressure: 999.0 mb]
Winds:from the N (350 degrees) at 5 MPH (4 knots; 2.1 m/s)
Visibility:10 or more sm (16+ km)
Ceiling:500 feet AGL
Clouds: broken clouds at 500 feet AGL, overcast cloud deck at 4000 feet AGL
QC Flag:SOME DATA ABOVE MAY BE INACCURATE!!!"$" is an indication the sensor requires maintenance.
Text:PANC 182053Z 35006KT 10SM BKN005 OVC040 03/02 A2950 RMK AO2 RAE37 SLP992 P0000 60000 T00330022 58001 $
Temperature: 3.3°C ( 38°F)
Dewpoint: 2.2°C ( 36°F) [RH = 92%]
Pressure (altimeter):29.50 inches Hg ( 999.1 mb) [Sea level pressure: 999.2 mb]
Winds:from the N (350 degrees) at 7 MPH (6 knots; 3.1 m/s)
Visibility:10 or more sm (16+ km)
Ceiling:500 feet AGL
Clouds: broken clouds at 500 feet AGL, overcast cloud deck at 4000 feet AGL
QC Flag:SOME DATA ABOVE MAY BE INACCURATE!!!"$" is an indication the sensor requires maintenance.
Text:PANC 181953Z 35006KT 10SM -RA BKN005 OVC060 03/02 A2951 RMK AO2 RAE07B27 SLP994 P0000 T00330022 $
Temperature: 3.3°C ( 38°F)
Dewpoint: 2.2°C ( 36°F) [RH = 92%]
Pressure (altimeter):29.51 inches Hg ( 999.4 mb) [Sea level pressure: 999.4 mb]
Winds:from the N (350 degrees) at 7 MPH (6 knots; 3.1 m/s)
Visibility:10 or more sm (16+ km)
Ceiling:500 feet AGL
Clouds: broken clouds at 500 feet AGL, overcast cloud deck at 6000 feet AGL
Weather:-RA (light rain)
QC Flag:SOME DATA ABOVE MAY BE INACCURATE!!!"$" is an indication the sensor requires maintenance.
Text:PANC 181900Z 35006KT 10SM -RA OVC005 03/02 A2950 RMK AO2 P0000 T00280017 $
Temperature: 2.8°C ( 37°F)
Dewpoint: 1.7°C ( 35°F) [RH = 92%]
Pressure (altimeter):29.50 inches Hg ( 999.1 mb)
Winds:from the N (350 degrees) at 7 MPH (6 knots; 3.1 m/s)
Visibility:10 or more sm (16+ km)
Ceiling:500 feet AGL
Clouds: overcast cloud deck at 500 feet AGL
Weather:-RA (light rain)
QC Flag:SOME DATA ABOVE MAY BE INACCURATE!!!"$" is an indication the sensor requires maintenance.
Text:PANC 181853Z 34007KT 10SM -RA BKN003 OVC060 03/02 A2950 RMK AO2 SLP992 4/001 P0000 T00280017 $
Temperature: 2.8°C ( 37°F)
Dewpoint: 1.7°C ( 35°F) [RH = 92%]
Pressure (altimeter):29.50 inches Hg ( 999.1 mb) [Sea level pressure: 999.2 mb]
Winds:from the NNW (340 degrees) at 8 MPH (7 knots; 3.6 m/s)
Visibility:10 or more sm (16+ km)
Ceiling:300 feet AGL
Clouds: broken clouds at 300 feet AGL, overcast cloud deck at 6000 feet AGL
Weather:-RA (light rain)
QC Flag:SOME DATA ABOVE MAY BE INACCURATE!!!"$" is an indication the sensor requires maintenance.

TAF for:PANC (Anchorage Intl, AK, US) issued at 2326 UTC 18 Nov 2018
Text:PANC 182326Z 1900/2006 35006KT P6SM VCSH OVC003
Forecast period:0000 to 1500 UTC 19 November 2018
Forecast type:FROM: standard forecast or significant change
Winds:from the N (350 degrees) at 7 MPH (6 knots; 3.1 m/s)
Visibility:6 or more sm (10+ km)
Ceiling:300 feet AGL
Clouds: overcast cloud deck at 300 feet AGL
Weather:VCSH (showers in vicinity)
Text:FM191500 VRB05KT P6SM VCFG SCT005 OVC060
Forecast period:1500 to 2100 UTC 19 November 2018
Forecast type:FROM: standard forecast or significant change
Winds:variable direction winds at 6 MPH (5 knots; 2.6 m/s)
Visibility:6 or more sm (10+ km)
Ceiling:6000 feet AGL
Clouds: scattered clouds at 500 feet AGL, overcast cloud deck at 6000 feet AGL
Weather:VCFG (fog in vicinity)
Text:FM192100 VRB04KT P6SM VCSH FEW010 SCT050 OVC080
Forecast period:2100 UTC 19 November 2018 to 0600 UTC 20 November 2018
Forecast type:FROM: standard forecast or significant change
Winds:variable direction winds at 5 MPH (4 knots; 2.1 m/s)
Visibility:6 or more sm (10+ km)
Ceiling:8000 feet AGL
Clouds: few clouds at 1000 feet AGL, scattered clouds at 5000 feet AGL, overcast cloud deck at 8000 feet AGL
Weather:VCSH (showers in vicinity)